SpainFixed distance
Val d'Aran by UTMB - Peades d'Aigua
4 Jul2024
Distance
55km
Finishers
1,5391,272 men267 women
Winning time
5:00:20h
Median pace
5.61km/h
Pace distribution
1,539 finishers · 3.91–10.99 km/h · mean 5.82
Every finisher ran the same 55 km course, so these paces are directly comparable.
Histogram of finisher pace. 1,539 finishers ranged from 3.91 to 10.99 kilometres per hour, with a mean of 5.82 and a median of 5.61. The busiest band is 5.0 to 5.5 kilometres per hour, with 308 finishers.
Results
Ranks 451–500 of 1,539
| Rank | Runner | Time | Pace | Cat. | Placing |
|---|---|---|---|---|---|
| 451 | 8:43:52h | 6.30 | M45 | 399th M · 58th M45 | |
| 452 | A.A ELS Tres Tossals | 8:43:56h | 6.30 | M45 | 400th M · 59th M45 |
| 453 | Lesi Team | 8:44:08h | 6.30 | W23 | 53rd F · 28th W23 |
| 453 | 8:44:08h | 6.30 | WU23 | 53rd F · 2nd WU23 | |
| 455 | Club Centre Excursioni... | 8:44:12h | 6.29 | W35 | 55th F · 12th W35 |
| 456 | Trailxtrem Team | 8:44:13h | 6.29 | M23 | 401st M · 145th M23 |
| 457 | Alpino Samano | 8:44:28h | 6.29 | M40 | 402nd M · 78th M40 |
| 458 | 8:44:55h | 6.29 | M45 | 403rd M · 60th M45 | |
| 459 | Aucune | 8:45:09h | 6.28 | M40 | 404th M · 79th M40 |
| 459 | Hlug | 8:45:09h | 6.28 | M35 | 404th M · 77th M35 |
| 461 | KB Goch | 8:45:40h | 6.28 | M50 | 406th M · 34th M50 |
| 462 | 8:45:48h | 6.28 | M23 | 407th M · 146th M23 | |
| 463 | Gymnapolis C.E. | 8:46:02h | 6.27 | M45 | 408th M · 61st M45 |
| 464 | Anec | 8:46:17h | 6.27 | M65 | 409th M · 1st M65 |
| 465 | Tribu Trail | 8:46:21h | 6.27 | M45 | 410th M · 62nd M45 |
| 466 | Titaguas Corre | 8:47:32h | 6.26 | M40 | 411th M · 80th M40 |
| 467 | 8:48:04h | 6.25 | M23 | 412th M · 147th M23 | |
| 468 | 8:48:08h | 6.25 | M23 | 413th M · 148th M23 | |
| 468 | Girondins de Bordeaux ... | 8:48:08h | 6.25 | M23 | 413th M · 148th M23 |
| 470 | Stipri.LT | 8:48:13h | 6.25 | W35 | 56th F · 13th W35 |
| 471 | 8:48:17h | 6.25 | M23 | 415th M · 150th M23 | |
| 472 | CEM les Llebres de Muro | 8:48:31h | 6.24 | M40 | 416th M · 81st M40 |
| 473 | CEM les Llebres de Muro | 8:48:41h | 6.24 | M40 | 417th M · 82nd M40 |
| 474 | Misty Mountain Running... | 8:48:52h | 6.24 | M50 | 418th M · 35th M50 |
| 475 | 8:49:01h | 6.24 | M23 | 419th M · 151st M23 | |
| 476 | Lagun Onak | 8:49:05h | 6.24 | W23 | 57th F · 29th W23 |
| 477 | Jabatos Team | 8:49:35h | 6.23 | M45 | 420th M · 63rd M45 |
| 478 | les Nenes Trail | 8:49:42h | 6.23 | W40 | 58th F · 10th W40 |
| 479 | Dimonis Trail | 8:49:52h | 6.23 | M35 | 421st M · 78th M35 |
| 480 | Adidas Runners Munich | 8:49:55h | 6.23 | M23 | 422nd M · 152nd M23 |
| 481 | Centre Excursionista d... | 8:50:02h | 6.23 | M35 | 423rd M · 79th M35 |
| 482 | 8:50:08h | 6.22 | M45 | 424th M · 64th M45 | |
| 483 | Kinetic Sports | 8:50:22h | 6.22 | M35 | 425th M · 80th M35 |
| 484 | Next Level | 8:50:37h | 6.22 | W35 | 59th F · 14th W35 |
| 485 | Juandelaf | 8:50:52h | 6.22 | M35 | 426th M · 81st M35 |
| 486 | Trail Magazin | 8:51:30h | 6.21 | M50 | 427th M · 36th M50 |
| 487 | 8:51:31h | 6.21 | M40 | 428th M · 83rd M40 | |
| 487 | Trail Runners Nueva Má... | 8:51:31h | 6.21 | M40 | 428th M · 83rd M40 |
| 489 | Run Addiction | 8:51:35h | 6.21 | M45 | 430th M · 65th M45 |
| 490 | C.A. Ivars | 8:51:43h | 6.21 | M35 | 431st M · 82nd M35 |
| 491 | JVM Trail Run | 8:51:45h | 6.21 | M40 | 432nd M · 85th M40 |
| 492 | Green Power Sports Team | 8:51:55h | 6.20 | M40 | 433rd M · 86th M40 |
| 493 | Soca-Run | 8:52:15h | 6.20 | M23 | 434th M · 153rd M23 |
| 494 | Castillejoruningteam | 8:52:16h | 6.20 | M40 | 435th M · 87th M40 |
| 495 | C.D. Old Peak | 8:52:17h | 6.20 | M50 | 436th M · 37th M50 |
| 495 | 8:52:17h | 6.20 | M45 | 436th M · 66th M45 | |
| 497 | Ultra Iran | 8:52:20h | 6.20 | W40 | 60th F · 11th W40 |
| 498 | 8:52:29h | 6.20 | M45 | 438th M · 67th M45 | |
| 499 | AS Run IN Niort | 8:52:39h | 6.20 | M50 | 439th M · 38th M50 |
| 500 | Peak Trail Academy | 8:52:48h | 6.19 | M45 | 440th M · 68th M45 |
- 451399th M · 58th M45Time8:43:52hPace6.30Cat.M45
- 452A.A ELS Tres Tossals400th M · 59th M45Time8:43:56hPace6.30Cat.M45
- 453Lesi Team53rd F · 28th W23Time8:44:08hPace6.30Cat.W23
- 45353rd F · 2nd WU23Time8:44:08hPace6.30Cat.WU23
- 455Club Centre Excursioni...55th F · 12th W35Time8:44:12hPace6.29Cat.W35
- 456Trailxtrem Team401st M · 145th M23Time8:44:13hPace6.29Cat.M23
- 457Alpino Samano402nd M · 78th M40Time8:44:28hPace6.29Cat.M40
- 458403rd M · 60th M45Time8:44:55hPace6.29Cat.M45
- 459Aucune404th M · 79th M40Time8:45:09hPace6.28Cat.M40
- 459Hlug404th M · 77th M35Time8:45:09hPace6.28Cat.M35
- 461KB Goch406th M · 34th M50Time8:45:40hPace6.28Cat.M50
- 462407th M · 146th M23Time8:45:48hPace6.28Cat.M23
- 463Gymnapolis C.E.408th M · 61st M45Time8:46:02hPace6.27Cat.M45
- 464Anec409th M · 1st M65Time8:46:17hPace6.27Cat.M65
- 465Tribu Trail410th M · 62nd M45Time8:46:21hPace6.27Cat.M45
- 466Titaguas Corre411th M · 80th M40Time8:47:32hPace6.26Cat.M40
- 467412th M · 147th M23Time8:48:04hPace6.25Cat.M23
- 468413th M · 148th M23Time8:48:08hPace6.25Cat.M23
- 468Girondins de Bordeaux ...413th M · 148th M23Time8:48:08hPace6.25Cat.M23
- 470Stipri.LT56th F · 13th W35Time8:48:13hPace6.25Cat.W35
- 471415th M · 150th M23Time8:48:17hPace6.25Cat.M23
- 472CEM les Llebres de Muro416th M · 81st M40Time8:48:31hPace6.24Cat.M40
- 473CEM les Llebres de Muro417th M · 82nd M40Time8:48:41hPace6.24Cat.M40
- 474Misty Mountain Running...418th M · 35th M50Time8:48:52hPace6.24Cat.M50
- 475419th M · 151st M23Time8:49:01hPace6.24Cat.M23
- 476Lagun Onak57th F · 29th W23Time8:49:05hPace6.24Cat.W23
- 477Jabatos Team420th M · 63rd M45Time8:49:35hPace6.23Cat.M45
- 478les Nenes Trail58th F · 10th W40Time8:49:42hPace6.23Cat.W40
- 479Dimonis Trail421st M · 78th M35Time8:49:52hPace6.23Cat.M35
- 480Adidas Runners Munich422nd M · 152nd M23Time8:49:55hPace6.23Cat.M23
- 481Centre Excursionista d...423rd M · 79th M35Time8:50:02hPace6.23Cat.M35
- 482424th M · 64th M45Time8:50:08hPace6.22Cat.M45
- 483Kinetic Sports425th M · 80th M35Time8:50:22hPace6.22Cat.M35
- 484Next Level59th F · 14th W35Time8:50:37hPace6.22Cat.W35
- 485Juandelaf426th M · 81st M35Time8:50:52hPace6.22Cat.M35
- 486Trail Magazin427th M · 36th M50Time8:51:30hPace6.21Cat.M50
- 487428th M · 83rd M40Time8:51:31hPace6.21Cat.M40
- 487Trail Runners Nueva Má...428th M · 83rd M40Time8:51:31hPace6.21Cat.M40
- 489Run Addiction430th M · 65th M45Time8:51:35hPace6.21Cat.M45
- 490C.A. Ivars431st M · 82nd M35Time8:51:43hPace6.21Cat.M35
- 491JVM Trail Run432nd M · 85th M40Time8:51:45hPace6.21Cat.M40
- 492Green Power Sports Team433rd M · 86th M40Time8:51:55hPace6.20Cat.M40
- 493Soca-Run434th M · 153rd M23Time8:52:15hPace6.20Cat.M23
- 494Castillejoruningteam435th M · 87th M40Time8:52:16hPace6.20Cat.M40
- 495C.D. Old Peak436th M · 37th M50Time8:52:17hPace6.20Cat.M50
- 495436th M · 66th M45Time8:52:17hPace6.20Cat.M45
- 497Ultra Iran60th F · 11th W40Time8:52:20hPace6.20Cat.W40
- 498438th M · 67th M45Time8:52:29hPace6.20Cat.M45
- 499AS Run IN Niort439th M · 38th M50Time8:52:39hPace6.20Cat.M50
- 500Peak Trail Academy440th M · 68th M45Time8:52:48hPace6.19Cat.M45
Showing ranks 451–500 of 1,539